KDRA/DRA METAR and TAF weather

Enter ICAO airport designator
Station Type Date Time Source
KDRA METAR 2019/04/25 01:56 UTC NOAA

KDRA 250156Z AUTO 24005KT 10SM CLR 28/01 A2992 RMK AO2 SLP087 T02830006 $


Station Type Date Time Source
KDRA Decoded METAR 2019/04/25 01:56 UTC NOAA

DESERT ROCK AIRPORT, NV, United States (KDRA) 36-38N 116-02W 1006M
Apr 24, 2019 - 09:56 PM EDT / 2019.04.25 0156 UTC
Wind: from the WSW (240 degrees) at 6 MPH (5 KT):0
Visibility: 10 mile(s):0
Sky conditions: clear
Temperature: 82.9 F (28.3 C)
Dew Point: 33.1 F (0.6 C)
Relative Humidity: 16%
Pressure (altimeter): 29.92 in. Hg (1013 hPa)
ob: KDRA 250156Z AUTO 24005KT 10SM CLR 28/01 A2992 RMK AO2 SLP087 T02830006
cycle: 2

Station Type Date Time Source
KDRA TAF 2011/12/07 06:36 UTC NOAA

TAF KDRA 070532Z 0706/0806 VRB04KT P6SM SKC

Example: see airport list